createdAt,value
2023-01-23T00:01:36.053Z,2.60
2023-01-23T00:04:04.496Z,2.50
2023-01-23T00:06:31.467Z,2.50
2023-01-23T00:08:58.442Z,2.50
2023-01-23T00:11:28.548Z,2.50
2023-01-23T00:13:59.069Z,2.40
2023-01-23T00:16:29.796Z,2.50
2023-01-23T00:18:57.369Z,2.50
2023-01-23T00:21:27.368Z,2.50
2023-01-23T00:23:57.502Z,2.50
2023-01-23T00:26:28.092Z,2.50
2023-01-23T00:29:22.951Z,2.50
2023-01-23T00:31:49.722Z,2.60
2023-01-23T00:34:16.621Z,2.60
2023-01-23T00:36:44.829Z,2.50
2023-01-23T00:39:22.567Z,2.60
2023-01-23T00:41:50.240Z,2.60
2023-01-23T00:44:18.062Z,2.60
2023-01-23T00:46:47.890Z,2.50
2023-01-23T00:49:17.688Z,2.60
2023-01-23T00:51:45.810Z,2.60
2023-01-23T00:54:12.680Z,2.50
2023-01-23T00:56:39.573Z,2.50
2023-01-23T00:59:07.012Z,2.60
2023-01-23T01:01:34.273Z,2.60
2023-01-23T01:04:01.190Z,2.50
2023-01-23T01:06:29.785Z,2.50
2023-01-23T01:08:59.595Z,2.50
2023-01-23T01:11:26.975Z,2.60
2023-01-23T01:13:54.077Z,2.60
2023-01-23T01:16:20.968Z,2.60
2023-01-23T01:18:47.768Z,2.60
2023-01-23T01:21:16.423Z,2.60
2023-01-23T01:23:43.762Z,2.50
2023-01-23T01:26:11.276Z,2.50
2023-01-23T01:28:40.182Z,2.50
2023-01-23T01:31:13.961Z,2.50
2023-01-23T01:33:42.449Z,2.50
2023-01-23T01:36:16.340Z,2.50
2023-01-23T01:38:43.543Z,2.50
2023-01-23T01:41:12.421Z,2.50
2023-01-23T01:43:42.852Z,2.50
2023-01-23T01:46:09.701Z,2.50
2023-01-23T01:48:51.960Z,2.40
2023-01-23T01:51:41.919Z,2.50
2023-01-23T01:55:02.785Z,2.50
2023-01-23T01:57:43.981Z,2.40
2023-01-23T02:00:21.291Z,2.50
2023-01-23T02:03:02.786Z,2.60
2023-01-23T02:05:45.141Z,2.60
2023-01-23T02:08:35.428Z,2.60
2023-01-23T02:11:08.915Z,2.60
2023-01-23T02:13:39.938Z,2.60
2023-01-23T02:16:25.390Z,2.60
2023-01-23T02:18:57.494Z,2.60
2023-01-23T02:21:25.610Z,2.50
2023-01-23T02:24:14.554Z,2.50
2023-01-23T02:26:45.446Z,2.50
2023-01-23T02:29:15.176Z,2.60
2023-01-23T02:31:46.346Z,2.50
2023-01-23T02:34:14.284Z,2.50
2023-01-23T02:36:45.336Z,2.50
2023-01-23T02:39:19.497Z,2.50
2023-01-23T02:41:50.527Z,2.60
2023-01-23T02:44:27.636Z,2.50
2023-01-23T02:46:59.262Z,2.50
2023-01-23T02:49:26.560Z,2.60
2023-01-23T02:51:55.629Z,2.60
2023-01-23T02:54:23.580Z,2.60
2023-01-23T02:56:51.334Z,2.60
2023-01-23T02:59:36.645Z,2.60
2023-01-23T03:02:06.188Z,2.60
2023-01-23T03:04:33.083Z,2.60
2023-01-23T03:07:00.279Z,2.60
2023-01-23T03:09:28.226Z,2.60
2023-01-23T03:11:55.353Z,2.60
2023-01-23T03:14:24.069Z,2.60
2023-01-23T03:16:53.644Z,2.60
2023-01-23T03:19:26.617Z,2.60
2023-01-23T03:21:54.600Z,2.50
2023-01-23T03:24:21.627Z,2.60
2023-01-23T03:26:50.257Z,2.60
2023-01-23T03:29:43.902Z,2.50
2023-01-23T03:32:13.507Z,2.50
2023-01-23T03:34:41.537Z,2.50
2023-01-23T03:37:10.462Z,2.50
2023-01-23T03:39:56.087Z,2.50
2023-01-23T03:42:23.153Z,2.50
2023-01-23T03:44:53.161Z,2.50
2023-01-23T03:47:21.576Z,2.50
2023-01-23T03:49:48.577Z,2.50
2023-01-23T03:52:15.313Z,2.50
2023-01-23T03:54:42.219Z,2.50
2023-01-23T03:57:10.282Z,2.60
2023-01-23T03:59:37.548Z,2.60
2023-01-23T04:02:07.673Z,2.60
2023-01-23T04:05:19.332Z,2.60
2023-01-23T04:07:46.145Z,2.50
2023-01-23T04:10:13.396Z,2.50
2023-01-23T04:12:43.615Z,2.50
2023-01-23T04:15:11.563Z,2.50
2023-01-23T04:17:40.628Z,2.60
2023-01-23T04:20:10.495Z,2.50
2023-01-23T04:22:37.741Z,2.50
2023-01-23T04:25:05.933Z,2.50
2023-01-23T04:27:32.990Z,2.50
2023-01-23T04:29:59.714Z,2.60
2023-01-23T04:32:26.493Z,2.60
2023-01-23T04:34:53.361Z,2.60
2023-01-23T04:37:20.128Z,2.50
2023-01-23T04:39:46.838Z,2.60
2023-01-23T04:42:13.700Z,2.50
2023-01-23T04:44:40.472Z,2.50
2023-01-23T04:47:07.217Z,2.60
2023-01-23T04:49:33.960Z,2.50
2023-01-23T04:52:00.698Z,2.50
2023-01-23T04:54:27.474Z,2.50
2023-01-23T04:56:56.601Z,2.60
2023-01-23T04:59:23.372Z,2.60
2023-01-23T05:01:50.124Z,2.60
2023-01-23T05:04:17.096Z,2.60
2023-01-23T05:06:43.892Z,2.60
2023-01-23T05:09:10.802Z,2.60
2023-01-23T05:11:37.614Z,2.60
2023-01-23T05:14:04.358Z,2.60
2023-01-23T05:16:31.250Z,2.60
2023-01-23T05:18:58.003Z,2.60
2023-01-23T05:21:24.766Z,2.60
2023-01-23T05:23:51.604Z,2.70
2023-01-23T05:26:18.389Z,2.60
2023-01-23T05:28:46.861Z,2.60
2023-01-23T05:31:14.159Z,2.70
2023-01-23T05:33:41.095Z,2.70
2023-01-23T05:36:08.404Z,2.70
2023-01-23T05:38:35.341Z,2.70
2023-01-23T05:41:02.422Z,2.70
2023-01-23T05:43:43.292Z,2.70
2023-01-23T05:46:12.663Z,2.60
2023-01-23T05:48:40.614Z,2.70
2023-01-23T05:51:07.458Z,2.70
2023-01-23T05:53:34.254Z,2.70
2023-01-23T05:56:07.306Z,2.80
2023-01-23T05:58:34.170Z,2.70
2023-01-23T06:01:05.431Z,2.70
2023-01-23T06:03:32.353Z,2.70
2023-01-23T06:06:02.503Z,2.70
2023-01-23T06:09:02.190Z,2.70
2023-01-23T06:11:28.940Z,2.70
2023-01-23T06:13:55.710Z,2.70
2023-01-23T06:16:22.507Z,2.70
2023-01-23T06:18:49.387Z,2.70
2023-01-23T06:21:18.407Z,2.60
2023-01-23T06:23:52.383Z,2.70
2023-01-23T06:26:35.528Z,2.60
2023-01-23T06:29:04.750Z,2.60
2023-01-23T06:31:32.684Z,2.60
2023-01-23T06:34:00.576Z,2.60
2023-01-23T06:36:27.884Z,2.60
2023-01-23T06:38:54.958Z,2.70
2023-01-23T06:41:24.350Z,2.70
2023-01-23T06:43:51.366Z,2.70
2023-01-23T06:46:21.564Z,2.70
2023-01-23T06:48:48.377Z,2.70
2023-01-23T06:51:15.392Z,2.70
2023-01-23T06:53:42.111Z,2.70
2023-01-23T06:56:09.665Z,2.70
2023-01-23T06:58:38.661Z,2.70
2023-01-23T07:01:15.733Z,2.70
2023-01-23T07:03:44.939Z,2.70
2023-01-23T07:06:21.213Z,2.70
2023-01-23T07:08:47.957Z,2.70
2023-01-23T07:11:14.799Z,2.70
2023-01-23T07:13:41.689Z,2.70
2023-01-23T07:16:08.681Z,2.80
2023-01-23T07:18:36.032Z,2.80
2023-01-23T07:21:06.408Z,2.80
2023-01-23T07:23:34.168Z,2.80
2023-01-23T07:26:21.793Z,2.80
2023-01-23T07:28:48.627Z,2.90
2023-01-23T07:31:16.345Z,2.80
2023-01-23T07:33:43.252Z,2.80
2023-01-23T07:36:10.555Z,2.90
2023-01-23T07:38:42.432Z,2.80
2023-01-23T07:41:09.412Z,2.80
2023-01-23T07:43:36.340Z,2.80
2023-01-23T07:46:03.664Z,2.80
2023-01-23T07:48:30.495Z,2.80
2023-01-23T07:51:01.189Z,2.90
2023-01-23T07:53:27.915Z,2.90
2023-01-23T07:55:54.769Z,2.80
2023-01-23T07:58:21.572Z,2.90
2023-01-23T08:00:48.316Z,2.90
2023-01-23T08:03:15.111Z,2.90
2023-01-23T08:05:44.209Z,2.90
2023-01-23T08:08:13.688Z,2.90
2023-01-23T08:10:41.501Z,2.80
2023-01-23T08:13:08.460Z,2.80
2023-01-23T08:15:37.508Z,2.90
2023-01-23T08:18:05.072Z,2.90
2023-01-23T08:20:31.865Z,2.90
2023-01-23T08:23:00.679Z,2.90
2023-01-23T08:25:27.711Z,2.90
2023-01-23T08:27:54.485Z,2.90
2023-01-23T08:30:21.746Z,2.90
2023-01-23T08:32:49.020Z,3.00
2023-01-23T08:35:16.557Z,3.00
2023-01-23T08:37:43.330Z,3.00
2023-01-23T08:40:11.120Z,3.00
2023-01-23T08:42:37.822Z,3.00
2023-01-23T08:45:06.885Z,3.00
2023-01-23T08:47:41.777Z,3.10
2023-01-23T08:50:09.903Z,3.10
2023-01-23T08:52:36.871Z,3.20
2023-01-23T08:55:03.825Z,3.10
2023-01-23T08:57:31.580Z,3.20
2023-01-23T08:59:58.524Z,3.20
2023-01-23T09:02:25.478Z,3.20
2023-01-23T09:04:52.345Z,3.20
2023-01-23T09:07:19.168Z,3.20
2023-01-23T09:09:46.488Z,3.20
2023-01-23T09:12:13.673Z,3.20
2023-01-23T09:14:40.514Z,3.20
2023-01-23T09:17:07.432Z,3.20
2023-01-23T09:19:34.517Z,3.20
2023-01-23T09:22:01.361Z,3.30
2023-01-23T09:24:28.450Z,3.30
2023-01-23T09:26:55.220Z,3.30
2023-01-23T09:29:21.915Z,3.30
2023-01-23T09:31:48.729Z,3.30
2023-01-23T09:34:17.161Z,3.30
2023-01-23T09:36:44.405Z,3.30
2023-01-23T09:39:12.180Z,3.30
2023-01-23T09:41:41.115Z,3.30
2023-01-23T09:44:22.750Z,3.40
2023-01-23T09:47:02.632Z,3.30
2023-01-23T09:49:46.966Z,3.40
2023-01-23T09:52:20.765Z,3.40
2023-01-23T09:54:58.045Z,3.50
2023-01-23T09:57:34.601Z,3.40
2023-01-23T10:00:04.846Z,3.40
2023-01-23T10:02:31.751Z,3.50
2023-01-23T10:05:02.438Z,3.50
2023-01-23T10:07:38.072Z,3.50
2023-01-23T10:10:38.943Z,3.60
2023-01-23T10:13:18.046Z,3.60
2023-01-23T10:16:16.911Z,3.70
2023-01-23T10:19:14.873Z,3.60
2023-01-23T10:22:23.500Z,3.70
2023-01-23T10:24:58.183Z,3.80
2023-01-23T10:27:38.129Z,3.70
2023-01-23T10:30:20.183Z,3.70
2023-01-23T10:33:09.637Z,3.70
2023-01-23T10:35:58.176Z,3.70
2023-01-23T10:38:46.382Z,3.80
2023-01-23T10:41:21.140Z,3.80
2023-01-23T10:43:53.882Z,3.80
2023-01-23T10:46:59.553Z,3.80
2023-01-23T10:49:39.799Z,3.90
2023-01-23T10:52:29.493Z,3.80
2023-01-23T10:54:56.356Z,3.80
2023-01-23T10:57:30.749Z,3.80
2023-01-23T11:00:07.473Z,3.80
2023-01-23T11:02:37.782Z,3.90
2023-01-23T11:05:53.691Z,3.90
2023-01-23T11:08:34.025Z,3.90
2023-01-23T11:11:15.968Z,3.90
2023-01-23T11:13:45.769Z,4.00
2023-01-23T11:16:23.898Z,3.90
2023-01-23T11:19:02.963Z,4.10
2023-01-23T11:21:53.093Z,4.10
2023-01-23T11:24:38.332Z,4.10
2023-01-23T11:27:20.843Z,4.20
2023-01-23T11:30:29.819Z,4.30
2023-01-23T11:33:13.141Z,4.20
2023-01-23T11:35:58.018Z,4.30
2023-01-23T11:38:52.172Z,4.40
2023-01-23T11:41:23.089Z,4.50
2023-01-23T11:43:49.833Z,4.50
2023-01-23T11:47:03.217Z,4.60
2023-01-23T11:50:03.112Z,4.50
2023-01-23T11:52:47.356Z,4.50
2023-01-23T11:55:51.309Z,4.50
2023-01-23T11:59:00.934Z,4.60
2023-01-23T12:02:18.094Z,4.60
2023-01-23T12:05:12.413Z,4.70
2023-01-23T12:08:07.418Z,4.70
2023-01-23T12:11:10.676Z,4.70
2023-01-23T12:14:14.445Z,4.70
2023-01-23T12:17:14.338Z,4.70
2023-01-23T12:20:03.735Z,4.80
2023-01-23T12:23:01.354Z,4.70
2023-01-23T12:25:39.442Z,4.70
2023-01-23T12:28:06.224Z,4.70
2023-01-23T12:30:47.235Z,4.80
2023-01-23T12:33:53.277Z,4.80
2023-01-23T12:36:59.575Z,4.80
2023-01-23T12:40:08.620Z,4.80
2023-01-23T12:42:55.597Z,4.90
2023-01-23T12:45:29.140Z,4.90
2023-01-23T12:48:15.893Z,4.90
2023-01-23T12:50:51.158Z,5.00
2023-01-23T12:53:25.080Z,5.10
2023-01-23T12:56:10.225Z,5.10
2023-01-23T12:58:53.317Z,5.10
2023-01-23T13:02:16.782Z,5.10
2023-01-23T13:05:15.660Z,5.10
2023-01-23T13:08:10.030Z,5.10
2023-01-23T13:11:41.183Z,5.10
2023-01-23T13:14:43.494Z,5.20
2023-01-23T13:18:01.959Z,5.10
2023-01-23T13:20:52.638Z,5.00
2023-01-23T13:23:33.351Z,5.00
2023-01-23T13:26:15.617Z,5.00
2023-01-23T13:28:48.751Z,5.10
2023-01-23T13:31:37.560Z,5.00
2023-01-23T13:34:24.787Z,5.10
2023-01-23T13:36:53.407Z,5.10
2023-01-23T13:39:28.465Z,5.10
2023-01-23T13:42:27.475Z,5.10
2023-01-23T13:45:16.156Z,5.00
2023-01-23T14:21:20.743Z,5.10
2023-01-23T14:23:53.236Z,5.10
2023-01-23T14:26:26.625Z,5.10
2023-01-23T14:29:04.161Z,5.10
2023-01-23T14:31:34.816Z,5.10
2023-01-23T14:34:18.662Z,5.00
2023-01-23T14:37:04.519Z,5.00
2023-01-23T14:39:35.899Z,5.00
2023-01-23T14:42:11.677Z,5.00
2023-01-23T14:44:47.061Z,5.00
2023-01-23T14:47:29.407Z,5.00
2023-01-23T14:49:57.866Z,4.90
2023-01-23T14:52:29.067Z,4.90
2023-01-23T14:55:01.157Z,4.80
2023-01-23T14:57:35.452Z,4.90
2023-01-23T15:00:04.191Z,4.80
2023-01-23T15:02:35.122Z,4.80
2023-01-23T15:05:09.477Z,4.90
2023-01-23T15:07:59.455Z,4.90
2023-01-23T15:10:50.380Z,4.80
2023-01-23T15:13:41.839Z,4.90
2023-01-23T15:16:40.404Z,4.90
2023-01-23T15:19:23.763Z,4.90
2023-01-23T15:22:04.184Z,4.80
2023-01-23T15:24:30.944Z,4.80
2023-01-23T15:27:06.448Z,4.80
2023-01-23T15:29:53.936Z,4.70
2023-01-23T15:32:26.146Z,4.70
2023-01-23T15:34:57.745Z,4.60
2023-01-23T15:37:27.481Z,4.70
2023-01-23T15:40:04.501Z,4.70
2023-01-23T15:42:34.050Z,4.80
2023-01-23T15:45:03.652Z,4.70
2023-01-23T15:47:32.127Z,4.60
2023-01-23T15:50:02.792Z,4.70
2023-01-23T15:52:51.944Z,4.70
2023-01-23T15:55:22.162Z,4.70
2023-01-23T15:57:49.357Z,4.70
2023-01-23T16:00:27.086Z,4.60
2023-01-23T16:02:57.904Z,4.60
2023-01-23T16:05:36.877Z,4.60
2023-01-23T16:08:09.086Z,4.70
2023-01-23T16:10:40.394Z,4.60
2023-01-23T16:13:07.790Z,4.60
2023-01-23T16:15:37.141Z,4.60
2023-01-23T16:18:04.657Z,4.60
2023-01-23T16:20:36.287Z,4.70
2023-01-23T16:23:15.660Z,4.70
2023-01-23T16:25:47.010Z,4.60
2023-01-23T16:28:19.718Z,4.50
2023-01-23T16:30:48.372Z,4.50
2023-01-23T16:33:16.355Z,4.40
2023-01-23T16:35:44.266Z,4.50
2023-01-23T16:38:28.821Z,4.50
2023-01-23T16:40:59.542Z,4.50
2023-01-23T16:43:30.113Z,4.50
2023-01-23T16:46:02.226Z,4.50
2023-01-23T16:48:29.130Z,4.50
2023-01-23T16:51:21.775Z,4.50
2023-01-23T16:54:00.705Z,4.50
2023-01-23T16:56:42.390Z,4.50
2023-01-23T16:59:31.768Z,4.50
2023-01-23T17:02:00.038Z,4.40
2023-01-23T17:04:30.449Z,4.30
2023-01-23T17:06:57.210Z,4.30
2023-01-23T17:09:27.091Z,4.30
2023-01-23T17:11:56.495Z,4.30
2023-01-23T17:14:35.128Z,4.20
2023-01-23T17:17:14.162Z,4.20
2023-01-23T17:19:43.764Z,4.20
2023-01-23T17:22:28.130Z,4.20
2023-01-23T17:24:54.875Z,4.20
2023-01-23T17:27:22.241Z,4.10
2023-01-23T17:29:49.213Z,4.20
2023-01-23T17:32:35.670Z,4.20
2023-01-23T17:35:06.748Z,4.20
2023-01-23T17:37:35.398Z,4.20
2023-01-23T17:40:02.538Z,4.20
2023-01-23T17:42:29.457Z,4.20
2023-01-23T17:44:58.279Z,4.20
2023-01-23T17:47:28.573Z,4.20
2023-01-23T17:49:56.431Z,4.10
2023-01-23T17:52:28.661Z,4.10
2023-01-23T17:54:58.511Z,4.20
2023-01-23T17:57:25.348Z,4.20
2023-01-23T17:59:56.544Z,4.20
2023-01-23T18:02:28.852Z,4.20
2023-01-23T18:04:55.896Z,4.10
2023-01-23T18:07:22.792Z,4.20
2023-01-23T18:09:49.571Z,4.20
2023-01-23T18:12:56.890Z,4.20
2023-01-23T18:15:40.680Z,4.20
2023-01-23T18:18:29.667Z,4.20
2023-01-23T18:20:58.468Z,4.20
2023-01-23T18:23:28.016Z,4.20
2023-01-23T18:26:28.604Z,4.20
2023-01-23T18:29:19.326Z,4.20
2023-01-23T18:32:42.217Z,4.30
2023-01-23T18:36:08.255Z,4.30
2023-01-23T18:39:11.154Z,4.30
2023-01-23T18:41:57.003Z,4.20
2023-01-23T18:44:29.051Z,4.20
2023-01-23T18:46:56.823Z,4.20
2023-01-23T18:49:32.354Z,4.20
2023-01-23T18:52:09.449Z,4.20
2023-01-23T18:54:56.607Z,4.20
2023-01-23T18:58:12.919Z,4.20
2023-01-23T19:01:24.700Z,4.20
2023-01-23T19:03:54.635Z,4.10
2023-01-23T19:06:25.317Z,4.20
2023-01-23T19:08:56.417Z,4.20
2023-01-23T19:11:58.704Z,4.10
2023-01-23T19:15:03.812Z,4.20
2023-01-23T19:18:00.772Z,4.20
2023-01-23T19:20:51.403Z,4.20
2023-01-23T19:23:36.854Z,4.30
2023-01-23T19:26:13.025Z,4.20
2023-01-23T19:28:40.441Z,4.20
2023-01-23T19:31:24.758Z,4.20
2023-01-23T19:33:54.130Z,4.30
2023-01-23T19:36:25.613Z,4.30
2023-01-23T19:38:56.320Z,4.30
2023-01-23T19:41:44.429Z,4.30
2023-01-23T19:44:17.464Z,4.20
2023-01-23T19:46:44.706Z,4.20
2023-01-23T19:49:15.147Z,4.20
2023-01-23T19:51:43.403Z,4.20
2023-01-23T19:54:13.274Z,4.20
2023-01-23T19:56:40.631Z,4.20
2023-01-23T19:59:10.615Z,4.20
2023-01-23T20:01:49.156Z,4.20
2023-01-23T20:04:24.982Z,4.20
2023-01-23T20:06:52.444Z,4.20
2023-01-23T20:09:20.040Z,4.20
2023-01-23T20:11:47.663Z,4.20
2023-01-23T20:14:14.459Z,4.20
2023-01-23T20:16:44.425Z,4.20
2023-01-23T20:19:15.410Z,4.20
2023-01-23T20:21:42.847Z,4.20
2023-01-23T20:24:12.792Z,4.20
2023-01-23T20:26:42.786Z,4.20
2023-01-23T20:29:11.634Z,4.20
2023-01-23T20:31:38.609Z,4.20
2023-01-23T20:34:05.508Z,4.20
2023-01-23T20:36:35.174Z,4.20
2023-01-23T20:39:01.958Z,4.20
2023-01-23T20:41:28.664Z,4.20
2023-01-23T20:43:55.446Z,4.20
2023-01-23T20:46:22.295Z,4.10
2023-01-23T20:48:52.287Z,4.10
2023-01-23T20:51:19.229Z,4.10
2023-01-23T20:53:46.032Z,4.10
2023-01-23T20:56:18.791Z,4.10
2023-01-23T20:59:08.545Z,4.10
2023-01-23T21:02:00.443Z,4.10
2023-01-23T21:04:35.113Z,4.10
2023-01-23T21:07:03.680Z,4.10
2023-01-23T21:09:30.795Z,4.10
2023-01-23T21:11:58.048Z,4.10
2023-01-23T21:14:24.834Z,4.10
2023-01-23T21:16:55.230Z,4.10
2023-01-23T21:19:22.236Z,4.10
2023-01-23T21:21:49.062Z,4.10
2023-01-23T21:24:16.067Z,4.10
2023-01-23T21:26:49.403Z,4.10
2023-01-23T21:29:16.361Z,4.10
2023-01-23T21:31:43.293Z,4.10
2023-01-23T21:34:14.254Z,4.10
2023-01-23T21:36:44.925Z,4.10
2023-01-23T21:39:14.585Z,4.10
2023-01-23T21:41:41.553Z,4.10
2023-01-23T21:44:11.003Z,4.10
2023-01-23T21:46:37.848Z,4.10
2023-01-23T21:49:07.575Z,4.10
2023-01-23T21:51:34.474Z,4.10
2023-01-23T21:54:01.396Z,4.00
2023-01-23T21:56:34.550Z,4.00
2023-01-23T21:59:01.344Z,4.00
2023-01-23T22:01:41.355Z,4.00
2023-01-23T22:04:13.891Z,4.00
2023-01-23T22:06:45.710Z,4.00
2023-01-23T22:09:18.539Z,4.10
2023-01-23T22:11:49.157Z,4.10
2023-01-23T22:14:18.243Z,4.10
2023-01-23T22:16:50.217Z,4.10
2023-01-23T22:19:24.603Z,4.10
2023-01-23T22:21:54.478Z,4.00
2023-01-23T22:24:21.404Z,4.00
2023-01-23T22:26:48.411Z,4.10
2023-01-23T22:29:18.457Z,4.10
2023-01-23T22:31:45.255Z,4.10
2023-01-23T22:34:12.151Z,4.00
2023-01-23T22:36:45.033Z,4.00
2023-01-23T22:39:17.865Z,4.00
2023-01-23T22:41:46.584Z,3.90
2023-01-23T22:44:17.194Z,4.00
2023-01-23T22:46:44.214Z,4.00
2023-01-23T22:49:11.135Z,4.00
2023-01-23T22:51:37.880Z,3.90
2023-01-23T22:54:07.996Z,4.00
2023-01-23T22:56:34.713Z,4.00
2023-01-23T22:59:04.443Z,4.00
2023-01-23T23:01:31.208Z,4.00
2023-01-23T23:03:59.840Z,4.00
2023-01-23T23:06:28.089Z,4.00
2023-01-23T23:08:55.312Z,3.90
2023-01-23T23:11:25.979Z,3.90
2023-01-23T23:13:53.560Z,4.00
2023-01-23T23:16:24.659Z,3.90
2023-01-23T23:18:54.332Z,3.90
2023-01-23T23:21:25.803Z,4.00
2023-01-23T23:23:59.861Z,4.00
2023-01-23T23:26:31.573Z,4.10
2023-01-23T23:29:00.539Z,4.00
2023-01-23T23:31:27.551Z,4.00
2023-01-23T23:33:54.619Z,3.90
2023-01-23T23:36:21.572Z,3.90
2023-01-23T23:38:48.433Z,3.90
2023-01-23T23:41:16.653Z,3.90
2023-01-23T23:43:46.619Z,4.00
2023-01-23T23:46:17.173Z,4.00
2023-01-23T23:48:46.021Z,4.00
2023-01-23T23:51:16.597Z,4.00
2023-01-23T23:53:46.876Z,3.90
2023-01-23T23:56:27.196Z,3.90
2023-01-23T23:58:56.069Z,3.90
